createdAt,value
2022-08-09T00:00:28.524Z,39.00
2022-08-09T00:02:54.907Z,39.11
2022-08-09T00:06:16.180Z,39.11
2022-08-09T00:07:47.743Z,39.16
2022-08-09T00:10:21.160Z,39.20
2022-08-09T00:12:40.633Z,39.24
2022-08-09T00:15:07.140Z,39.21
2022-08-09T00:18:05.585Z,39.37
2022-08-09T00:19:59.795Z,39.41
2022-08-09T00:22:33.761Z,39.29
2022-08-09T00:24:52.572Z,39.19
2022-08-09T00:27:18.984Z,39.29
2022-08-09T00:30:24.543Z,39.42
2022-08-09T00:32:12.576Z,39.38
2022-08-09T00:34:38.150Z,39.43
2022-08-09T00:37:04.532Z,39.54
2022-08-09T00:40:13.225Z,39.41
2022-08-09T00:44:11.855Z,39.41
2022-08-09T00:44:26.644Z,39.44
2022-08-09T00:46:57.830Z,39.40
2022-08-09T00:49:16.514Z,39.27
2022-08-09T00:51:54.730Z,39.37
2022-08-09T00:54:09.344Z,39.41
2022-08-09T00:56:35.741Z,39.24
2022-08-09T00:59:02.134Z,39.18
2022-08-09T01:01:32.401Z,39.09
2022-08-09T01:03:55.053Z,38.96
2022-08-09T01:06:21.321Z,39.01
2022-08-09T01:08:48.972Z,39.09
2022-08-09T01:11:15.285Z,39.18
2022-08-09T01:13:53.369Z,39.10
2022-08-09T01:16:06.935Z,39.06
2022-08-09T01:18:33.317Z,38.97
2022-08-09T01:20:59.728Z,39.09
2022-08-09T01:24:02.324Z,39.13
2022-08-09T01:25:52.525Z,38.97
2022-08-09T01:28:18.908Z,39.05
2022-08-09T01:30:52.291Z,39.02
2022-08-09T01:33:11.681Z,39.04
2022-08-09T01:35:39.215Z,38.97
2022-08-09T01:38:07.907Z,39.01
2022-08-09T01:40:30.836Z,39.12
2022-08-09T01:42:57.243Z,39.15
2022-08-09T01:45:23.653Z,39.06
2022-08-09T01:47:50.033Z,39.06
2022-08-09T01:50:17.096Z,38.99
2022-08-09T01:52:43.431Z,39.22
2022-08-09T01:55:09.224Z,39.18
2022-08-09T01:57:40.397Z,39.11
2022-08-09T02:00:19.235Z,39.18
2022-08-09T02:02:30.886Z,39.15
2022-08-09T02:04:54.803Z,39.18
2022-08-09T02:08:40.186Z,38.87
2022-08-09T02:09:47.585Z,38.68
2022-08-09T02:12:21.104Z,38.70
2022-08-09T02:14:40.472Z,38.67
2022-08-09T02:17:15.283Z,38.61
2022-08-09T02:19:38.834Z,38.61
2022-08-09T02:21:59.625Z,38.57
2022-08-09T02:24:26.813Z,38.56
2022-08-09T02:26:52.397Z,38.51
2022-08-09T02:29:18.799Z,38.50
2022-08-09T02:31:45.292Z,38.54
2022-08-09T02:34:13.817Z,38.54
2022-08-09T02:36:38.173Z,38.65
2022-08-09T02:39:04.569Z,38.67
2022-08-09T02:41:31.048Z,38.73
2022-08-09T02:43:57.457Z,38.73
2022-08-09T02:46:23.948Z,38.80
2022-08-09T02:48:50.996Z,38.92
2022-08-09T02:51:16.654Z,39.03
2022-08-09T02:53:53.095Z,39.11
2022-08-09T02:56:09.432Z,39.19
2022-08-09T02:58:37.923Z,39.30
2022-08-09T03:01:03.964Z,39.32
2022-08-09T03:03:37.180Z,39.28
2022-08-09T03:05:55.575Z,39.28
2022-08-09T03:08:21.393Z,39.32
2022-08-09T03:10:50.862Z,39.35
2022-08-09T03:13:14.204Z,39.42
2022-08-09T03:16:06.019Z,39.36
2022-08-09T03:18:10.693Z,39.44
2022-08-09T03:20:33.419Z,39.52
2022-08-09T03:23:14.655Z,39.57
2022-08-09T03:25:59.389Z,39.65
2022-08-09T03:27:52.709Z,39.64
2022-08-09T03:30:29.166Z,39.72
2022-08-09T03:32:45.714Z,39.71
2022-08-09T03:35:14.825Z,39.73
2022-08-09T03:37:54.268Z,39.75
2022-08-09T03:40:04.987Z,39.76
2022-08-09T03:42:31.120Z,39.74
2022-08-09T03:44:57.402Z,39.71
2022-08-09T03:47:23.838Z,39.76
2022-08-09T03:49:58.337Z,39.82
2022-08-09T03:52:16.634Z,39.81
2022-08-09T03:54:43.022Z,39.75
2022-08-09T03:57:18.724Z,39.89
2022-08-09T03:59:53.884Z,39.83
2022-08-09T04:02:02.276Z,39.80
2022-08-09T04:04:32.573Z,39.77
2022-08-09T04:06:55.103Z,39.89
2022-08-09T04:09:48.313Z,39.82
2022-08-09T04:11:47.885Z,40.00
2022-08-09T04:14:53.998Z,45.46
2022-08-09T04:16:40.705Z,41.21
2022-08-09T04:19:11.127Z,41.68
2022-08-09T04:21:36.346Z,41.73
2022-08-09T04:24:00.009Z,41.69
2022-08-09T04:26:35.168Z,41.62
2022-08-09T04:28:58.232Z,41.61
2022-08-09T04:31:19.171Z,41.71
2022-08-09T04:33:52.470Z,41.58
2022-08-09T04:36:11.939Z,41.62
2022-08-09T04:38:38.357Z,41.50
2022-08-09T04:41:04.760Z,41.44
2022-08-09T04:43:31.258Z,41.44
2022-08-09T04:45:57.643Z,41.40
2022-08-09T04:48:33.565Z,41.23
2022-08-09T04:50:50.420Z,41.27
2022-08-09T04:53:16.797Z,41.50
2022-08-09T04:55:57.697Z,41.06
2022-08-09T04:58:09.934Z,41.09
2022-08-09T05:00:36.146Z,41.07
2022-08-09T05:03:12.929Z,41.03
2022-08-09T05:05:32.366Z,40.93
2022-08-09T05:07:55.137Z,40.88
2022-08-09T05:10:21.539Z,40.93
2022-08-09T05:12:47.922Z,40.86
2022-08-09T05:15:38.302Z,40.86
2022-08-09T05:18:38.258Z,40.79
2022-08-09T05:20:07.137Z,40.78
2022-08-09T05:22:35.089Z,40.81
2022-08-09T05:25:00.972Z,40.79
2022-08-09T05:27:26.320Z,40.80
2022-08-09T05:29:52.703Z,40.81
2022-08-09T05:32:19.092Z,40.89
2022-08-09T05:34:45.756Z,40.96
2022-08-09T05:37:11.895Z,40.94
2022-08-09T05:39:43.602Z,40.97
2022-08-09T05:42:06.079Z,40.99
2022-08-09T05:44:32.900Z,41.21
2022-08-09T05:46:57.466Z,41.25
2022-08-09T05:50:23.133Z,41.25
2022-08-09T05:51:50.255Z,41.40
2022-08-09T05:54:17.990Z,41.41
2022-08-09T05:56:54.554Z,41.59
2022-08-09T05:59:10.646Z,41.61
2022-08-09T06:01:42.699Z,41.71
2022-08-09T06:04:02.469Z,41.73
2022-08-09T06:06:28.684Z,41.83
2022-08-09T06:08:55.076Z,41.89
2022-08-09T06:11:21.463Z,41.99
2022-08-09T06:13:47.863Z,41.89
2022-08-09T06:16:14.275Z,42.12
2022-08-09T06:18:40.690Z,42.27
2022-08-09T06:21:07.090Z,42.26
2022-08-09T06:23:55.197Z,42.53
2022-08-09T06:25:59.953Z,42.60
2022-08-09T06:28:27.395Z,42.69
2022-08-09T06:30:52.801Z,42.71
2022-08-09T06:33:39.634Z,42.67
2022-08-09T06:35:57.022Z,42.67
2022-08-09T06:38:12.191Z,42.54
2022-08-09T06:40:38.707Z,42.56
2022-08-09T06:43:07.730Z,42.44
2022-08-09T06:46:07.069Z,42.39
2022-08-09T06:48:01.501Z,42.50
2022-08-09T06:50:24.402Z,42.41
2022-08-09T06:52:50.801Z,42.34
2022-08-09T06:55:17.232Z,42.40
2022-08-09T06:58:03.034Z,42.24
2022-08-09T07:00:49.736Z,42.49
2022-08-09T07:02:36.517Z,42.51
2022-08-09T07:05:02.813Z,42.66
2022-08-09T07:08:00.418Z,42.69
2022-08-09T07:10:17.982Z,42.95
2022-08-09T07:12:22.050Z,42.99
2022-08-09T07:14:51.300Z,43.09
2022-08-09T07:17:14.877Z,43.07
2022-08-09T07:19:41.268Z,43.27
2022-08-09T07:22:08.186Z,43.27
2022-08-09T07:24:40.592Z,43.43
2022-08-09T07:27:00.968Z,43.53
2022-08-09T07:29:27.507Z,43.31
2022-08-09T07:31:53.908Z,43.41
2022-08-09T07:34:21.037Z,43.41
2022-08-09T07:36:47.370Z,43.44
2022-08-09T07:39:20.212Z,43.31
2022-08-09T07:41:39.609Z,43.33
2022-08-09T07:44:06.011Z,43.24
2022-08-09T07:46:32.394Z,43.10
2022-08-09T07:49:00.182Z,43.04
2022-08-09T07:52:04.770Z,42.96
2022-08-09T07:54:04.086Z,43.00
2022-08-09T07:56:27.112Z,43.06
2022-08-09T07:58:44.420Z,42.55
2022-08-09T08:01:11.221Z,42.66
2022-08-09T08:03:37.201Z,42.95
2022-08-09T08:06:03.598Z,42.85
2022-08-09T08:09:00.056Z,42.85
2022-08-09T08:11:03.381Z,43.13
2022-08-09T08:13:22.924Z,43.08
2022-08-09T08:15:49.323Z,43.37
2022-08-09T08:18:16.416Z,43.46
2022-08-09T08:20:42.724Z,43.34
2022-08-09T08:23:17.134Z,43.47
2022-08-09T08:25:44.547Z,43.61
2022-08-09T08:28:01.377Z,43.43
2022-08-09T08:30:27.758Z,43.41
2022-08-09T08:32:54.268Z,43.29
2022-08-09T08:35:22.211Z,43.24
2022-08-09T08:38:02.197Z,43.21
2022-08-09T08:40:13.327Z,43.22
2022-08-09T08:42:39.709Z,43.05
2022-08-09T08:45:13.589Z,43.17
2022-08-09T08:47:32.536Z,43.07
2022-08-09T08:49:58.882Z,42.92
2022-08-09T08:52:57.981Z,43.02
2022-08-09T08:54:51.725Z,42.85
2022-08-09T08:57:18.144Z,42.68
2022-08-09T08:59:47.100Z,42.47
2022-08-09T09:02:11.230Z,42.44
2022-08-09T09:04:47.364Z,42.57
2022-08-09T09:07:04.017Z,42.75
2022-08-09T09:09:58.704Z,42.47
2022-08-09T09:11:58.129Z,42.85
2022-08-09T09:14:23.437Z,42.57
2022-08-09T09:16:49.904Z,42.47
2022-08-09T09:19:36.556Z,42.60
2022-08-09T09:21:43.107Z,42.53
2022-08-09T09:24:10.531Z,42.37
2022-08-09T09:26:35.737Z,42.37
2022-08-09T09:29:10.227Z,41.99
2022-08-09T09:32:04.505Z,41.88
2022-08-09T09:33:56.663Z,41.73
2022-08-09T09:36:21.473Z,41.72
2022-08-09T09:38:47.917Z,41.57
2022-08-09T09:41:15.153Z,41.35
2022-08-09T09:44:12.574Z,41.23
2022-08-09T09:48:34.496Z,41.02
2022-08-09T09:51:01.205Z,40.92
2022-08-09T09:53:57.642Z,40.76
2022-08-09T09:56:04.079Z,40.69
2022-08-09T09:58:20.534Z,40.50
2022-08-09T10:00:53.875Z,40.40
2022-08-09T10:03:14.151Z,40.60
2022-08-09T10:06:03.690Z,40.82
2022-08-09T10:08:25.991Z,40.73
2022-08-09T10:10:35.558Z,40.70
2022-08-09T10:13:04.538Z,40.67
2022-08-09T10:16:08.674Z,40.31
2022-08-09T10:17:57.417Z,39.99
2022-08-09T10:20:32.601Z,40.47
2022-08-09T10:22:50.284Z,40.62
2022-08-09T10:25:16.736Z,40.92
2022-08-09T10:27:56.075Z,40.57
2022-08-09T10:31:39.118Z,40.73
2022-08-09T10:32:42.490Z,41.28
2022-08-09T10:35:02.600Z,41.37
2022-08-09T10:37:29.029Z,40.44
2022-08-09T10:39:55.521Z,39.83
2022-08-09T10:42:21.956Z,40.12
2022-08-09T10:44:48.400Z,40.22
2022-08-09T10:48:12.475Z,39.96
2022-08-09T10:49:50.498Z,40.31
2022-08-09T10:52:07.728Z,40.23
2022-08-09T10:54:34.156Z,40.17
2022-08-09T10:57:00.582Z,40.21
2022-08-09T10:59:31.293Z,40.09
2022-08-09T11:03:14.670Z,40.25
2022-08-09T11:04:30.477Z,40.32
2022-08-09T11:06:46.319Z,39.95
2022-08-09T11:09:15.873Z,39.83
2022-08-09T11:11:43.670Z,39.80
2022-08-09T11:14:05.620Z,39.60
2022-08-09T11:16:35.040Z,39.62
2022-08-09T11:18:58.492Z,39.60
2022-08-09T11:21:24.917Z,39.64
2022-08-09T11:23:51.361Z,39.54
2022-08-09T11:26:17.785Z,39.30
2022-08-09T11:28:56.306Z,39.35
2022-08-09T11:31:13.200Z,39.41
2022-08-09T11:33:39.626Z,39.30
2022-08-09T11:36:06.076Z,39.34
2022-08-09T11:38:34.952Z,39.19
2022-08-09T11:41:01.067Z,39.13
2022-08-09T11:43:27.524Z,39.11
2022-08-09T11:45:54.090Z,39.10
2022-08-09T11:48:25.143Z,39.08
2022-08-09T11:50:53.083Z,38.93
2022-08-09T11:53:58.729Z,38.96
2022-08-09T11:55:52.413Z,39.04
2022-08-09T11:58:06.556Z,38.99
2022-08-09T12:00:32.988Z,39.12
2022-08-09T12:02:59.571Z,39.11
2022-08-09T12:05:26.131Z,39.10
2022-08-09T12:07:53.423Z,39.22
2022-08-09T12:10:38.374Z,39.24
2022-08-09T12:12:45.565Z,39.17
2022-08-09T12:15:12.001Z,39.14
2022-08-09T12:17:43.475Z,39.04
2022-08-09T12:20:04.897Z,38.97
2022-08-09T12:22:31.559Z,38.82
2022-08-09T12:24:57.851Z,38.84
2022-08-09T12:29:10.127Z,38.64
2022-08-09T12:29:54.055Z,38.62
2022-08-09T12:32:17.125Z,38.51
2022-08-09T12:34:43.553Z,38.35
2022-08-09T12:37:23.818Z,38.44
2022-08-09T12:39:37.665Z,38.25
2022-08-09T12:42:02.870Z,38.52
2022-08-09T12:44:29.293Z,39.11
2022-08-09T12:46:55.717Z,39.20
2022-08-09T12:49:22.149Z,38.92
2022-08-09T12:52:01.709Z,38.94
2022-08-09T12:54:15.011Z,38.98
2022-08-09T12:56:48.288Z,38.97
2022-08-09T12:59:07.883Z,38.96
2022-08-09T13:01:34.536Z,39.02
2022-08-09T13:04:01.886Z,38.77
2022-08-09T13:06:34.344Z,38.67
2022-08-09T13:08:54.046Z,38.73
2022-08-09T13:11:25.887Z,38.66
2022-08-09T13:14:42.915Z,38.46
2022-08-09T13:16:13.505Z,38.54
2022-08-09T13:18:39.984Z,38.45
2022-08-09T13:22:36.030Z,38.32
2022-08-09T13:24:16.391Z,38.36
2022-08-09T13:25:59.392Z,38.29
2022-08-09T13:28:34.267Z,38.38
2022-08-09T13:32:15.937Z,38.25
2022-08-09T13:33:18.891Z,38.32
2022-08-09T13:36:38.818Z,38.03
2022-08-09T13:38:17.551Z,38.16
2022-08-09T13:41:51.052Z,37.96
2022-08-09T13:43:05.168Z,37.89
2022-08-09T13:45:32.573Z,37.73
2022-08-09T13:47:59.697Z,37.51
2022-08-09T13:50:30.667Z,37.26
2022-08-09T13:52:50.888Z,37.25
2022-08-09T13:55:17.653Z,37.34
2022-08-09T13:57:43.949Z,37.45
2022-08-09T14:00:10.670Z,37.22
2022-08-09T14:02:42.892Z,36.98
2022-08-09T14:05:03.725Z,37.17
2022-08-09T14:07:30.397Z,37.12
2022-08-09T14:09:56.509Z,37.22
2022-08-09T14:12:23.860Z,37.46
2022-08-09T14:14:53.715Z,37.31
2022-08-09T14:17:16.983Z,37.23
2022-08-09T14:19:42.569Z,37.24
2022-08-09T14:22:09.209Z,37.09
2022-08-09T14:24:35.630Z,37.06
2022-08-09T14:27:02.350Z,37.07
2022-08-09T14:30:35.091Z,37.06
2022-08-09T14:31:55.419Z,36.93
2022-08-09T14:34:31.564Z,36.93
2022-08-09T14:36:48.755Z,36.88
2022-08-09T14:39:14.767Z,36.85
2022-08-09T14:41:41.840Z,36.70
2022-08-09T14:44:09.683Z,36.71
2022-08-09T14:46:54.448Z,36.64
2022-08-09T14:49:00.886Z,36.71
2022-08-09T14:51:27.336Z,36.58
2022-08-09T14:53:53.769Z,36.68
2022-08-09T14:56:21.672Z,36.62
2022-08-09T14:58:46.825Z,36.67
2022-08-09T15:01:13.302Z,36.52
2022-08-09T15:03:39.691Z,36.44
2022-08-09T15:06:06.229Z,36.27
2022-08-09T15:08:32.764Z,36.29
2022-08-09T15:11:00.777Z,36.21
2022-08-09T15:13:25.731Z,36.34
2022-08-09T15:15:52.173Z,36.13
2022-08-09T15:18:18.700Z,36.26
2022-08-09T15:21:54.651Z,36.00
2022-08-09T15:24:02.327Z,36.19
2022-08-09T15:25:40.757Z,35.82
2022-08-09T15:28:04.741Z,35.90
2022-08-09T15:30:58.280Z,35.81
2022-08-09T15:32:57.666Z,35.74
2022-08-09T15:35:40.854Z,35.65
2022-08-09T15:38:04.016Z,35.59
2022-08-09T15:40:19.831Z,35.58
2022-08-09T15:42:43.649Z,35.58
2022-08-09T15:45:10.090Z,35.51
2022-08-09T15:47:52.320Z,35.60
2022-08-09T15:50:04.079Z,35.51
2022-08-09T15:52:29.614Z,35.50
2022-08-09T15:54:56.126Z,35.39
2022-08-09T15:57:34.172Z,35.43
2022-08-09T15:59:51.918Z,35.49
2022-08-09T16:02:17.110Z,35.42
2022-08-09T16:04:42.626Z,35.39
2022-08-09T16:07:08.331Z,35.40
2022-08-09T16:09:51.484Z,35.36
2022-08-09T16:12:01.261Z,35.36
2022-08-09T16:14:31.439Z,35.30
2022-08-09T16:16:54.329Z,35.36
2022-08-09T16:19:20.792Z,35.30
2022-08-09T16:21:48.552Z,35.29
2022-08-09T16:24:30.215Z,35.29
2022-08-09T16:26:40.133Z,35.28
2022-08-09T16:29:11.010Z,35.21
2022-08-09T16:32:11.170Z,35.20
2022-08-09T16:34:08.661Z,35.13
2022-08-09T16:36:35.033Z,35.07
2022-08-09T16:39:07.356Z,35.03
2022-08-09T16:42:02.973Z,34.97
2022-08-09T16:44:00.066Z,34.84
2022-08-09T16:46:27.489Z,34.71
2022-08-09T16:49:03.286Z,34.67
2022-08-09T16:51:19.227Z,34.69
2022-08-09T16:54:27.746Z,34.63
2022-08-09T16:56:11.993Z,34.52
2022-08-09T16:58:39.849Z,34.48
2022-08-09T17:01:04.864Z,34.28
2022-08-09T17:03:31.157Z,34.18
2022-08-09T17:06:08.180Z,34.01
2022-08-09T17:08:45.078Z,33.84
2022-08-09T17:10:51.923Z,33.77
2022-08-09T17:13:16.731Z,33.55
2022-08-09T17:16:00.420Z,33.54
2022-08-09T17:18:10.715Z,33.57
2022-08-09T17:20:40.437Z,33.51
2022-08-09T17:23:02.575Z,33.20
2022-08-09T17:25:30.494Z,33.13
2022-08-09T17:27:55.345Z,33.17
2022-08-09T17:30:21.513Z,33.04
2022-08-09T17:32:47.902Z,32.95
2022-08-09T17:35:14.471Z,32.91
2022-08-09T17:38:02.576Z,32.83
2022-08-09T17:40:17.975Z,32.66
2022-08-09T17:42:40.790Z,32.55
2022-08-09T17:44:59.869Z,32.43
2022-08-09T17:47:26.250Z,32.51
2022-08-09T17:50:07.475Z,32.39
2022-08-09T17:52:22.645Z,32.34
2022-08-09T17:54:48.414Z,32.23
2022-08-09T17:57:20.705Z,32.14
2022-08-09T17:59:41.205Z,32.11
2022-08-09T18:02:12.755Z,31.94
2022-08-09T18:04:33.988Z,31.91
2022-08-09T18:07:00.377Z,32.01
2022-08-09T18:09:40.445Z,31.93
2022-08-09T18:12:05.802Z,32.01
2022-08-09T18:14:19.638Z,32.03
2022-08-09T18:16:48.940Z,32.04
2022-08-09T18:20:55.889Z,32.06
2022-08-09T18:21:41.461Z,32.12
2022-08-09T18:24:12.179Z,32.01
2022-08-09T18:26:31.627Z,32.23
2022-08-09T18:30:38.746Z,32.22
2022-08-09T18:31:25.094Z,32.21
2022-08-09T18:33:53.627Z,32.36
2022-08-09T18:36:25.563Z,32.36
2022-08-09T18:38:43.591Z,32.31
2022-08-09T18:41:09.970Z,32.30
2022-08-09T18:43:36.355Z,32.25
2022-08-09T18:46:49.011Z,32.33
2022-08-09T18:48:30.432Z,32.33
2022-08-09T18:50:56.983Z,32.27
2022-08-09T18:53:21.965Z,32.36
2022-08-09T18:55:57.146Z,32.24
2022-08-09T18:58:14.724Z,32.37
2022-08-09T19:00:41.119Z,32.35
2022-08-09T19:03:07.497Z,32.39
2022-08-09T19:05:48.987Z,32.46
2022-08-09T19:08:09.651Z,32.41
2022-08-09T19:10:26.703Z,32.37
2022-08-09T19:13:08.860Z,32.36
2022-08-09T19:15:21.596Z,32.42
2022-08-09T19:17:56.110Z,32.46
2022-08-09T19:20:14.393Z,32.57
2022-08-09T19:22:40.777Z,32.46
2022-08-09T19:25:11.918Z,32.48
2022-08-09T19:27:33.540Z,32.51
2022-08-09T19:30:22.476Z,32.49
2022-08-09T19:32:26.580Z,32.59
2022-08-09T19:34:52.774Z,32.54
2022-08-09T19:37:19.105Z,32.53
2022-08-09T19:40:05.035Z,32.56
2022-08-09T19:42:14.915Z,32.52
2022-08-09T19:44:38.251Z,32.52
2022-08-09T19:47:04.634Z,32.68
2022-08-09T19:50:08.877Z,32.62
2022-08-09T19:51:57.420Z,32.63
2022-08-09T19:54:24.964Z,32.71
2022-08-09T19:56:50.188Z,32.74
2022-08-09T19:59:39.908Z,32.74
2022-08-09T20:02:03.528Z,32.75
2022-08-09T20:04:23.552Z,32.74
2022-08-09T20:06:35.817Z,32.79
2022-08-09T20:09:02.111Z,32.79
2022-08-09T20:11:43.082Z,32.83
2022-08-09T20:13:55.076Z,32.77
2022-08-09T20:16:33.355Z,32.92
2022-08-09T20:19:03.807Z,32.85
2022-08-09T20:21:14.017Z,32.85
2022-08-09T20:23:40.399Z,32.96
2022-08-09T20:26:07.042Z,32.75
2022-08-09T20:28:47.731Z,32.77
2022-08-09T20:30:59.560Z,32.79
2022-08-09T20:33:25.936Z,32.85
2022-08-09T20:35:52.554Z,32.85
2022-08-09T20:38:38.785Z,32.90
2022-08-09T20:40:45.110Z,32.88
2022-08-09T20:43:18.731Z,32.92
2022-08-09T20:46:01.711Z,33.07
2022-08-09T20:48:04.286Z,33.16
2022-08-09T20:50:47.344Z,33.24
2022-08-09T20:52:57.036Z,33.12
2022-08-09T20:55:23.474Z,33.26
2022-08-09T20:58:05.465Z,33.24
2022-08-09T21:00:20.256Z,33.19
2022-08-09T21:02:42.662Z,33.20
2022-08-09T21:05:54.409Z,33.24
2022-08-09T21:07:40.343Z,33.13
2022-08-09T21:10:01.781Z,33.12
2022-08-09T21:14:54.614Z,33.10
2022-08-09T21:18:11.874Z,33.00
2022-08-09T21:20:18.876Z,33.01
2022-08-09T21:22:36.272Z,33.01
2022-08-09T21:24:40.234Z,33.01
2022-08-09T21:27:10.490Z,33.00
2022-08-09T21:29:48.861Z,33.01
2022-08-09T21:31:59.524Z,33.04
2022-08-09T21:34:29.295Z,33.04
2022-08-09T21:36:55.677Z,33.07
2022-08-09T21:39:22.046Z,33.05
2022-08-09T21:42:04.588Z,33.05
2022-08-09T21:44:11.457Z,33.08
2022-08-09T21:46:37.873Z,33.09
2022-08-09T21:49:04.252Z,33.12
2022-08-09T21:51:36.102Z,33.11
2022-08-09T21:53:57.034Z,33.10
2022-08-09T21:56:33.795Z,33.16
2022-08-09T21:58:49.828Z,33.10
2022-08-09T22:01:26.440Z,33.14
2022-08-09T22:03:48.477Z,33.17
2022-08-09T22:06:09.015Z,33.14
2022-08-09T22:08:35.396Z,33.16
2022-08-09T22:12:05.644Z,33.10
2022-08-09T22:13:34.081Z,33.20
2022-08-09T22:15:54.583Z,33.18
2022-08-09T22:18:23.995Z,33.21
2022-08-09T22:20:47.355Z,33.17
2022-08-09T22:23:13.734Z,33.17
2022-08-09T22:26:06.604Z,33.22
2022-08-09T22:28:07.379Z,33.21
2022-08-09T22:30:33.506Z,33.25
2022-08-09T22:32:59.296Z,33.26
2022-08-09T22:36:02.261Z,33.24
2022-08-09T22:38:03.314Z,33.30
2022-08-09T22:40:19.966Z,33.36
2022-08-09T22:42:44.837Z,33.33
2022-08-09T22:48:11.845Z,33.28
2022-08-09T22:48:15.519Z,33.27
2022-08-09T22:50:04.042Z,33.34
2022-08-09T22:52:30.422Z,33.30
2022-08-09T22:54:56.819Z,33.46
2022-08-09T22:57:23.221Z,33.36
2022-08-09T22:59:55.954Z,33.39
2022-08-09T23:02:20.354Z,33.39
2022-08-09T23:04:42.362Z,33.35
2022-08-09T23:07:10.993Z,33.42
2022-08-09T23:09:36.120Z,33.54
2022-08-09T23:12:01.539Z,33.60
2022-08-09T23:14:37.697Z,33.49
2022-08-09T23:16:54.336Z,33.49
2022-08-09T23:19:20.725Z,33.47
2022-08-09T23:21:47.350Z,33.49
2022-08-09T23:24:13.740Z,33.46
2022-08-09T23:26:40.115Z,33.62
2022-08-09T23:29:06.512Z,33.71
2022-08-09T23:31:32.880Z,33.78
2022-08-09T23:33:59.274Z,33.55
2022-08-09T23:36:25.646Z,33.69
2022-08-09T23:38:52.035Z,33.51
2022-08-09T23:41:27.980Z,33.59
2022-08-09T23:43:44.817Z,33.46
2022-08-09T23:46:11.198Z,33.71
2022-08-09T23:48:37.583Z,33.53
2022-08-09T23:51:06.503Z,33.49
2022-08-09T23:53:33.595Z,33.46
2022-08-09T23:55:56.818Z,33.55
2022-08-09T23:58:26.170Z,33.48
